Terminal Aerodrome Forecast
Issued by NWS

Home | Current Version | Previous Version | Text Only | Print | Product List | Glossary On
Versions: 1 2 3 4 5 6 7 8 9 10 11 12 13 14 15 16
000
FTUS44 KCRP 292330
TAFALI
TAF
KALI 292330Z 3000/3024 14015KT P6SM SKC
     FM300300 15007KT P6SM FEW020
     FM300900 17003KT 2SM BR SCT005
      TEMPO 3010/3014 1/2SM FG VV005
     FM301410 19005KT P6SM SCT025
     FM301900 13011KT P6SM FEW050=

USA.gov is the U.S. government's official web portal to all federal, state and local government web resources and services.